sensor_id;sensor_type;location;lat;lon;timestamp;pressure;altitude;pressure_sealevel;temperature;humidity
53715;BME280;39608;55.630;37.864;2024-01-30T00:03:36;100580.88;;;-0.70;75.03
53715;BME280;39608;55.630;37.864;2024-01-30T00:08:39;100565.31;;;-0.73;75.24
53715;BME280;39608;55.630;37.864;2024-01-30T00:13:41;100577.88;;;-0.67;75.43
53715;BME280;39608;55.630;37.864;2024-01-30T00:18:43;100590.59;;;-0.62;75.11
53715;BME280;39608;55.630;37.864;2024-01-30T00:23:48;100591.41;;;-0.62;75.21
53715;BME280;39608;55.630;37.864;2024-01-30T00:28:50;100572.34;;;-0.65;75.27
53715;BME280;39608;55.630;37.864;2024-01-30T00:33:52;100571.94;;;-0.62;75.51
53715;BME280;39608;55.630;37.864;2024-01-30T00:38:55;100567.81;;;-0.65;75.15
53715;BME280;39608;55.630;37.864;2024-01-30T00:43:57;100576.00;;;-0.66;75.43
53715;BME280;39608;55.630;37.864;2024-01-30T00:48:59;100566.56;;;-0.69;75.20
53715;BME280;39608;55.630;37.864;2024-01-30T00:54:03;100560.22;;;-0.68;75.76
53715;BME280;39608;55.630;37.864;2024-01-30T00:59:04;100545.09;;;-0.61;75.85
53715;BME280;39608;55.630;37.864;2024-01-30T01:04:06;100554.97;;;-0.55;75.71
53715;BME280;39608;55.630;37.864;2024-01-30T01:09:10;100552.13;;;-0.53;75.71
53715;BME280;39608;55.630;37.864;2024-01-30T01:14:12;100556.63;;;-0.54;75.06
53715;BME280;39608;55.630;37.864;2024-01-30T01:19:14;100554.19;;;-0.48;75.18
53715;BME280;39608;55.630;37.864;2024-01-30T01:24:17;100543.94;;;-0.52;75.39
53715;BME280;39608;55.630;37.864;2024-01-30T01:29:19;100549.13;;;-0.43;75.80
53715;BME280;39608;55.630;37.864;2024-01-30T01:34:28;100537.41;;;-0.42;75.25
53715;BME280;39608;55.630;37.864;2024-01-30T01:39:32;100541.94;;;-0.43;75.42
53715;BME280;39608;55.630;37.864;2024-01-30T01:44:34;100533.50;;;-0.46;75.72
53715;BME280;39608;55.630;37.864;2024-01-30T01:49:36;100531.72;;;-0.39;75.33
53715;BME280;39608;55.630;37.864;2024-01-30T01:54:39;100537.66;;;-0.37;75.63
53715;BME280;39608;55.630;37.864;2024-01-30T01:59:41;100518.59;;;-0.34;75.21
53715;BME280;39608;55.630;37.864;2024-01-30T02:04:44;100522.28;;;-0.35;75.53
53715;BME280;39608;55.630;37.864;2024-01-30T02:09:47;100518.84;;;-0.29;75.23
53715;BME280;39608;55.630;37.864;2024-01-30T02:14:49;100525.81;;;-0.28;75.70
53715;BME280;39608;55.630;37.864;2024-01-30T02:19:52;100517.88;;;-0.14;75.02
53715;BME280;39608;55.630;37.864;2024-01-30T02:24:55;100514.63;;;-0.10;75.44
53715;BME280;39608;55.630;37.864;2024-01-30T02:29:57;100514.41;;;-0.02;75.08
53715;BME280;39608;55.630;37.864;2024-01-30T02:34:59;100515.66;;;0.03;75.07
53715;BME280;39608;55.630;37.864;2024-01-30T02:40:03;100512.81;;;0.11;75.02
53715;BME280;39608;55.630;37.864;2024-01-30T02:45:06;100508.31;;;0.11;75.20
53715;BME280;39608;55.630;37.864;2024-01-30T02:50:09;100513.84;;;0.16;74.95
53715;BME280;39608;55.630;37.864;2024-01-30T02:55:13;100508.34;;;0.25;75.23
53715;BME280;39608;55.630;37.864;2024-01-30T03:00:20;100507.13;;;0.27;75.20
53715;BME280;39608;55.630;37.864;2024-01-30T03:05:22;100513.69;;;0.31;74.87
53715;BME280;39608;55.630;37.864;2024-01-30T03:10:25;100503.66;;;0.27;74.94
53715;BME280;39608;55.630;37.864;2024-01-30T03:15:27;100515.56;;;0.31;75.22
53715;BME280;39608;55.630;37.864;2024-01-30T03:20:29;100540.81;;;0.42;75.23
53715;BME280;39608;55.630;37.864;2024-01-30T03:25:33;100537.56;;;0.46;75.05
53715;BME280;39608;55.630;37.864;2024-01-30T03:30:35;100547.59;;;0.51;74.96
53715;BME280;39608;55.630;37.864;2024-01-30T03:35:37;100536.09;;;0.57;74.99
53715;BME280;39608;55.630;37.864;2024-01-30T03:40:42;100540.84;;;0.62;75.41
53715;BME280;39608;55.630;37.864;2024-01-30T03:45:44;100547.22;;;0.61;75.04
53715;BME280;39608;55.630;37.864;2024-01-30T03:50:46;100536.53;;;0.61;75.00
53715;BME280;39608;55.630;37.864;2024-01-30T03:55:49;100547.22;;;0.67;74.85
53715;BME280;39608;55.630;37.864;2024-01-30T04:00:51;100542.91;;;0.66;74.84
53715;BME280;39608;55.630;37.864;2024-01-30T04:05:53;100555.63;;;0.71;75.03
53715;BME280;39608;55.630;37.864;2024-01-30T04:10:56;100551.75;;;0.74;74.64
53715;BME280;39608;55.630;37.864;2024-01-30T04:15:59;100549.47;;;0.71;75.15
53715;BME280;39608;55.630;37.864;2024-01-30T04:21:01;100547.25;;;0.74;74.81
53715;BME280;39608;55.630;37.864;2024-01-30T04:26:05;100559.75;;;0.80;75.08
53715;BME280;39608;55.630;37.864;2024-01-30T04:31:08;100549.69;;;0.82;75.01
53715;BME280;39608;55.630;37.864;2024-01-30T04:36:10;100544.75;;;0.86;75.03
53715;BME280;39608;55.630;37.864;2024-01-30T04:41:13;100549.09;;;0.94;75.15
53715;BME280;39608;55.630;37.864;2024-01-30T04:46:15;100531.00;;;0.96;75.13
53715;BME280;39608;55.630;37.864;2024-01-30T04:51:17;100539.63;;;0.98;75.11
53715;BME280;39608;55.630;37.864;2024-01-30T04:56:20;100543.53;;;1.02;75.11
53715;BME280;39608;55.630;37.864;2024-01-30T05:01:22;100554.22;;;1.02;75.39
53715;BME280;39608;55.630;37.864;2024-01-30T05:06:27;100557.50;;;1.11;75.19
53715;BME280;39608;55.630;37.864;2024-01-30T05:11:30;100553.78;;;1.12;75.65
53715;BME280;39608;55.630;37.864;2024-01-30T05:16:33;100555.44;;;1.13;75.84
53715;BME280;39608;55.630;37.864;2024-01-30T05:21:34;100550.09;;;1.13;75.78
53715;BME280;39608;55.630;37.864;2024-01-30T05:26:38;100546.00;;;1.17;75.50
53715;BME280;39608;55.630;37.864;2024-01-30T05:31:40;100552.97;;;1.18;75.84
53715;BME280;39608;55.630;37.864;2024-01-30T05:36:42;100551.34;;;1.17;75.84
53715;BME280;39608;55.630;37.864;2024-01-30T05:41:45;100567.78;;;1.21;76.24
53715;BME280;39608;55.630;37.864;2024-01-30T05:46:47;100544.97;;;1.18;76.21
53715;BME280;39608;55.630;37.864;2024-01-30T05:51:49;100560.56;;;1.21;76.46
53715;BME280;39608;55.630;37.864;2024-01-30T05:56:52;100561.81;;;1.18;76.94
53715;BME280;39608;55.630;37.864;2024-01-30T06:01:56;100570.44;;;1.21;77.19
53715;BME280;39608;55.630;37.864;2024-01-30T06:06:58;100584.84;;;1.19;77.96
53715;BME280;39608;55.630;37.864;2024-01-30T06:12:04;100585.03;;;1.18;77.67
53715;BME280;39608;55.630;37.864;2024-01-30T06:17:06;100584.03;;;1.19;78.05
53715;BME280;39608;55.630;37.864;2024-01-30T06:22:09;100581.53;;;1.17;77.96
53715;BME280;39608;55.630;37.864;2024-01-30T06:27:12;100588.31;;;1.20;78.63
53715;BME280;39608;55.630;37.864;2024-01-30T06:32:14;100585.66;;;1.20;78.66
53715;BME280;39608;55.630;37.864;2024-01-30T06:37:16;100597.19;;;1.21;78.61
53715;BME280;39608;55.630;37.864;2024-01-30T06:42:19;100602.72;;;1.19;78.56
53715;BME280;39608;55.630;37.864;2024-01-30T06:47:21;100606.81;;;1.22;78.69
53715;BME280;39608;55.630;37.864;2024-01-30T06:52:23;100608.03;;;1.26;78.37
53715;BME280;39608;55.630;37.864;2024-01-30T06:57:26;100600.25;;;1.31;78.45
53715;BME280;39608;55.630;37.864;2024-01-30T07:02:31;100586.66;;;1.39;78.31
53715;BME280;39608;55.630;37.864;2024-01-30T07:07:33;100607.44;;;1.44;78.39
53715;BME280;39608;55.630;37.864;2024-01-30T07:12:36;100611.75;;;1.51;78.70
53715;BME280;39608;55.630;37.864;2024-01-30T07:17:38;100621.38;;;1.52;78.51
53715;BME280;39608;55.630;37.864;2024-01-30T07:22:40;100619.56;;;1.60;78.49
53715;BME280;39608;55.630;37.864;2024-01-30T07:27:44;100636.19;;;1.62;78.68
53715;BME280;39608;55.630;37.864;2024-01-30T07:32:46;100628.16;;;1.68;78.42
53715;BME280;39608;55.630;37.864;2024-01-30T07:37:48;100617.25;;;1.77;78.60
53715;BME280;39608;55.630;37.864;2024-01-30T07:42:56;100636.78;;;1.91;78.27
53715;BME280;39608;55.630;37.864;2024-01-30T07:47:58;100626.50;;;1.74;77.85
53715;BME280;39608;55.630;37.864;2024-01-30T07:53:01;100633.50;;;1.75;78.04
53715;BME280;39608;55.630;37.864;2024-01-30T07:58:05;100625.28;;;1.70;78.99
53715;BME280;39608;55.630;37.864;2024-01-30T08:03:07;100624.44;;;1.76;79.18
53715;BME280;39608;55.630;37.864;2024-01-30T08:08:09;100622.78;;;1.82;79.16
53715;BME280;39608;55.630;37.864;2024-01-30T08:13:12;100612.25;;;2.00;79.23
53715;BME280;39608;55.630;37.864;2024-01-30T08:18:14;100627.66;;;2.12;79.03
53715;BME280;39608;55.630;37.864;2024-01-30T08:23:16;100642.06;;;2.11;79.62
53715;BME280;39608;55.630;37.864;2024-01-30T08:28:19;100621.22;;;2.19;80.24
53715;BME280;39608;55.630;37.864;2024-01-30T08:33:21;100634.00;;;2.17;79.87
53715;BME280;39608;55.630;37.864;2024-01-30T08:38:25;100632.38;;;2.10;79.61
53715;BME280;39608;55.630;37.864;2024-01-30T08:43:28;100625.34;;;2.15;79.75
53715;BME280;39608;55.630;37.864;2024-01-30T08:48:30;100628.69;;;2.04;79.53
53715;BME280;39608;55.630;37.864;2024-01-30T08:53:32;100619.44;;;2.07;79.69
53715;BME280;39608;55.630;37.864;2024-01-30T08:58:35;100621.72;;;2.03;79.77
53715;BME280;39608;55.630;37.864;2024-01-30T09:03:37;100608.13;;;2.04;79.87
53715;BME280;39608;55.630;37.864;2024-01-30T09:08:40;100620.66;;;2.04;79.74
53715;BME280;39608;55.630;37.864;2024-01-30T09:13:44;100625.00;;;2.05;79.40
53715;BME280;39608;55.630;37.864;2024-01-30T09:18:46;100620.66;;;2.04;79.62
53715;BME280;39608;55.630;37.864;2024-01-30T09:23:48;100635.91;;;2.10;79.45
53715;BME280;39608;55.630;37.864;2024-01-30T09:28:51;100626.41;;;2.14;79.42
53715;BME280;39608;55.630;37.864;2024-01-30T09:33:53;100629.91;;;2.08;79.18
53715;BME280;39608;55.630;37.864;2024-01-30T09:38:55;100634.22;;;2.16;79.09
53715;BME280;39608;55.630;37.864;2024-01-30T09:43:59;100618.50;;;2.39;79.14
53715;BME280;39608;55.630;37.864;2024-01-30T09:49:02;100610.56;;;2.58;78.80
53715;BME280;39608;55.630;37.864;2024-01-30T09:54:05;100614.03;;;2.59;78.98
53715;BME280;39608;55.630;37.864;2024-01-30T09:59:10;100616.13;;;2.56;78.79
53715;BME280;39608;55.630;37.864;2024-01-30T10:04:12;100609.94;;;2.56;79.11
53715;BME280;39608;55.630;37.864;2024-01-30T10:09:14;100601.28;;;2.61;79.02
53715;BME280;39608;55.630;37.864;2024-01-30T10:14:17;100616.69;;;2.65;79.35
53715;BME280;39608;55.630;37.864;2024-01-30T10:19:19;100611.84;;;2.49;80.21
53715;BME280;39608;55.630;37.864;2024-01-30T10:24:24;100629.13;;;2.46;80.58
53715;BME280;39608;55.630;37.864;2024-01-30T10:29:28;100635.34;;;2.47;81.00
53715;BME280;39608;55.630;37.864;2024-01-30T10:34:31;100626.53;;;2.33;80.42
53715;BME280;39608;55.630;37.864;2024-01-30T10:39:38;100623.44;;;2.36;80.75
53715;BME280;39608;55.630;37.864;2024-01-30T10:44:52;100614.38;;;2.37;80.66
53715;BME280;39608;55.630;37.864;2024-01-30T10:49:59;100611.72;;;2.30;80.92
53715;BME280;39608;55.630;37.864;2024-01-30T10:55:01;100620.41;;;2.26;81.52
53715;BME280;39608;55.630;37.864;2024-01-30T11:00:09;100618.75;;;2.25;81.52
53715;BME280;39608;55.630;37.864;2024-01-30T11:05:12;100620.63;;;2.24;81.27
53715;BME280;39608;55.630;37.864;2024-01-30T11:10:16;100623.06;;;2.32;81.29
53715;BME280;39608;55.630;37.864;2024-01-30T11:15:21;100624.16;;;2.56;81.78
53715;BME280;39608;55.630;37.864;2024-01-30T11:20:26;100632.00;;;2.51;81.13
53715;BME280;39608;55.630;37.864;2024-01-30T11:25:31;100608.53;;;2.53;82.08
53715;BME280;39608;55.630;37.864;2024-01-30T11:30:35;100622.13;;;2.52;81.47
53715;BME280;39608;55.630;37.864;2024-01-30T11:35:38;100618.84;;;2.50;80.99
53715;BME280;39608;55.630;37.864;2024-01-30T11:40:40;100628.75;;;2.49;80.85
53715;BME280;39608;55.630;37.864;2024-01-30T11:45:45;100621.09;;;2.46;81.23
53715;BME280;39608;55.630;37.864;2024-01-30T11:50:47;100635.16;;;2.42;81.76
53715;BME280;39608;55.630;37.864;2024-01-30T11:55:50;100643.41;;;2.40;81.77
53715;BME280;39608;55.630;37.864;2024-01-30T12:00:56;100653.06;;;2.48;80.82
53715;BME280;39608;55.630;37.864;2024-01-30T12:05:58;100659.66;;;2.45;81.89
53715;BME280;39608;55.630;37.864;2024-01-30T12:11:00;100673.66;;;2.40;81.89
53715;BME280;39608;55.630;37.864;2024-01-30T12:16:07;100671.81;;;2.41;81.47
53715;BME280;39608;55.630;37.864;2024-01-30T12:21:11;100669.16;;;2.34;81.51
53715;BME280;39608;55.630;37.864;2024-01-30T12:26:13;100654.53;;;2.37;81.82
53715;BME280;39608;55.630;37.864;2024-01-30T12:31:17;100652.28;;;2.34;81.11
53715;BME280;39608;55.630;37.864;2024-01-30T12:36:19;100653.91;;;2.35;81.78
53715;BME280;39608;55.630;37.864;2024-01-30T12:41:21;100656.34;;;2.43;81.54
53715;BME280;39608;55.630;37.864;2024-01-30T12:46:30;100657.31;;;2.55;80.73
53715;BME280;39608;55.630;37.864;2024-01-30T12:51:34;100673.16;;;2.64;80.64
53715;BME280;39608;55.630;37.864;2024-01-30T12:56:37;100665.34;;;2.55;81.04
53715;BME280;39608;55.630;37.864;2024-01-30T13:01:40;100677.50;;;2.58;81.01
53715;BME280;39608;55.630;37.864;2024-01-30T13:06:42;100675.63;;;2.59;80.63
53715;BME280;39608;55.630;37.864;2024-01-30T13:11:44;100677.91;;;2.62;80.59
53715;BME280;39608;55.630;37.864;2024-01-30T13:16:47;100674.41;;;2.61;80.63
53715;BME280;39608;55.630;37.864;2024-01-30T13:21:49;100668.84;;;2.56;80.24
53715;BME280;39608;55.630;37.864;2024-01-30T13:26:51;100675.47;;;2.53;79.84
53715;BME280;39608;55.630;37.864;2024-01-30T13:31:55;100680.63;;;2.55;79.80
53715;BME280;39608;55.630;37.864;2024-01-30T13:36:57;100682.28;;;2.49;80.34
53715;BME280;39608;55.630;37.864;2024-01-30T13:41:59;100681.44;;;2.49;80.66
53715;BME280;39608;55.630;37.864;2024-01-30T13:47:03;100679.41;;;2.51;81.76
53715;BME280;39608;55.630;37.864;2024-01-30T13:52:05;100687.03;;;2.40;80.78
53715;BME280;39608;55.630;37.864;2024-01-30T13:57:07;100680.44;;;2.43;80.22
53715;BME280;39608;55.630;37.864;2024-01-30T14:02:11;100693.00;;;2.49;80.26
53715;BME280;39608;55.630;37.864;2024-01-30T14:07:13;100703.91;;;2.48;80.41
53715;BME280;39608;55.630;37.864;2024-01-30T14:12:15;100696.69;;;2.48;80.39
53715;BME280;39608;55.630;37.864;2024-01-30T14:17:18;100709.88;;;2.50;80.29
53715;BME280;39608;55.630;37.864;2024-01-30T14:22:20;100719.34;;;2.52;80.49
53715;BME280;39608;55.630;37.864;2024-01-30T14:27:22;100717.09;;;2.49;80.43
53715;BME280;39608;55.630;37.864;2024-01-30T14:32:26;100716.25;;;2.49;79.83
53715;BME280;39608;55.630;37.864;2024-01-30T14:37:28;100720.38;;;2.45;79.83
53715;BME280;39608;55.630;37.864;2024-01-30T14:42:30;100718.56;;;2.38;80.25
53715;BME280;39608;55.630;37.864;2024-01-30T14:47:34;100727.00;;;2.42;80.02
53715;BME280;39608;55.630;37.864;2024-01-30T14:52:37;100725.56;;;2.39;80.47
53715;BME280;39608;55.630;37.864;2024-01-30T14:57:41;100721.03;;;2.40;80.01
53715;BME280;39608;55.630;37.864;2024-01-30T15:02:47;100733.19;;;2.36;80.52
53715;BME280;39608;55.630;37.864;2024-01-30T15:07:49;100732.97;;;2.31;80.68
53715;BME280;39608;55.630;37.864;2024-01-30T15:12:51;100721.06;;;2.27;80.61
53715;BME280;39608;55.630;37.864;2024-01-30T15:17:55;100716.13;;;2.17;80.06
53715;BME280;39608;55.630;37.864;2024-01-30T15:22:57;100737.97;;;2.14;80.75
53715;BME280;39608;55.630;37.864;2024-01-30T15:27:59;100743.75;;;2.11;80.76
53715;BME280;39608;55.630;37.864;2024-01-30T15:33:02;100765.16;;;2.11;80.45
53715;BME280;39608;55.630;37.864;2024-01-30T15:38:04;100766.38;;;2.08;80.64
53715;BME280;39608;55.630;37.864;2024-01-30T15:43:08;100772.78;;;2.07;80.46
53715;BME280;39608;55.630;37.864;2024-01-30T15:48:12;100766.81;;;2.05;81.02
53715;BME280;39608;55.630;37.864;2024-01-30T15:53:14;100770.91;;;2.01;80.69
53715;BME280;39608;55.630;37.864;2024-01-30T15:58:16;100773.59;;;2.01;80.74
53715;BME280;39608;55.630;37.864;2024-01-30T16:03:19;100779.38;;;1.98;80.66
53715;BME280;39608;55.630;37.864;2024-01-30T16:08:21;100783.47;;;1.94;80.92
53715;BME280;39608;55.630;37.864;2024-01-30T16:13:23;100785.13;;;1.95;80.75
53715;BME280;39608;55.630;37.864;2024-01-30T16:18:26;100784.09;;;1.96;80.39
53715;BME280;39608;55.630;37.864;2024-01-30T16:23:31;100779.16;;;1.93;80.72
53715;BME280;39608;55.630;37.864;2024-01-30T16:28:33;100777.09;;;1.95;80.44
53715;BME280;39608;55.630;37.864;2024-01-30T16:33:38;100771.53;;;1.96;79.80
53715;BME280;39608;55.630;37.864;2024-01-30T16:38:40;100780.81;;;1.94;79.83
53715;BME280;39608;55.630;37.864;2024-01-30T16:43:42;100779.56;;;1.90;80.33
53715;BME280;39608;55.630;37.864;2024-01-30T16:48:45;100774.63;;;1.86;80.72
53715;BME280;39608;55.630;37.864;2024-01-30T16:53:47;100780.78;;;1.80;80.82
53715;BME280;39608;55.630;37.864;2024-01-30T16:58:49;100787.38;;;1.71;80.64
53715;BME280;39608;55.630;37.864;2024-01-30T17:03:53;100789.84;;;1.73;80.64
53715;BME280;39608;55.630;37.864;2024-01-30T17:08:55;100787.81;;;1.68;80.62
53715;BME280;39608;55.630;37.864;2024-01-30T17:13:57;100786.75;;;1.69;80.31
53715;BME280;39608;55.630;37.864;2024-01-30T17:19:01;100777.72;;;1.77;80.60
53715;BME280;39608;55.630;37.864;2024-01-30T17:24:04;100775.84;;;1.77;80.41
53715;BME280;39608;55.630;37.864;2024-01-30T17:29:07;100788.44;;;1.83;80.01
53715;BME280;39608;55.630;37.864;2024-01-30T17:34:11;100788.19;;;1.92;79.94
53715;BME280;39608;55.630;37.864;2024-01-30T17:39:13;100794.78;;;1.96;80.39
53715;BME280;39608;55.630;37.864;2024-01-30T17:44:15;100781.81;;;1.93;80.50
53715;BME280;39608;55.630;37.864;2024-01-30T17:49:19;100791.50;;;1.94;80.27
53715;BME280;39608;55.630;37.864;2024-01-30T17:54:21;100784.91;;;1.90;80.17
53715;BME280;39608;55.630;37.864;2024-01-30T17:59:23;100781.22;;;1.84;80.34
53715;BME280;39608;55.630;37.864;2024-01-30T18:04:26;100778.75;;;1.82;80.61
53715;BME280;39608;55.630;37.864;2024-01-30T18:09:28;100789.22;;;1.77;80.38
53715;BME280;39608;55.630;37.864;2024-01-30T18:14:31;100778.53;;;1.77;80.67
53715;BME280;39608;55.630;37.864;2024-01-30T18:19:34;100788.41;;;1.77;80.08
53715;BME280;39608;55.630;37.864;2024-01-30T18:24:36;100783.88;;;1.77;79.93
53715;BME280;39608;55.630;37.864;2024-01-30T18:29:38;100776.88;;;1.76;79.81
53715;BME280;39608;55.630;37.864;2024-01-30T18:34:41;100779.97;;;1.80;79.91
53715;BME280;39608;55.630;37.864;2024-01-30T18:39:43;100782.84;;;1.78;80.33
53715;BME280;39608;55.630;37.864;2024-01-30T18:44:46;100775.25;;;1.75;80.09
53715;BME280;39608;55.630;37.864;2024-01-30T18:49:49;100777.50;;;1.71;80.09
53715;BME280;39608;55.630;37.864;2024-01-30T18:54:51;100773.56;;;1.61;80.18
53715;BME280;39608;55.630;37.864;2024-01-30T18:59:53;100756.09;;;1.51;79.85
53715;BME280;39608;55.630;37.864;2024-01-30T19:04:57;100755.88;;;1.46;80.11
53715;BME280;39608;55.630;37.864;2024-01-30T19:09:59;100764.50;;;1.35;80.40
53715;BME280;39608;55.630;37.864;2024-01-30T19:15:01;100772.50;;;1.28;80.27
53715;BME280;39608;55.630;37.864;2024-01-30T19:20:06;100763.84;;;1.19;80.47
53715;BME280;39608;55.630;37.864;2024-01-30T19:25:09;100762.19;;;1.05;80.47
53715;BME280;39608;55.630;37.864;2024-01-30T19:30:12;100762.75;;;0.94;80.62
53715;BME280;39608;55.630;37.864;2024-01-30T19:35:15;100770.31;;;0.83;80.40
53715;BME280;39608;55.630;37.864;2024-01-30T19:40:17;100767.59;;;0.70;80.52
53715;BME280;39608;55.630;37.864;2024-01-30T19:45:19;100773.94;;;0.69;80.90
53715;BME280;39608;55.630;37.864;2024-01-30T19:50:23;100784.88;;;0.74;81.13
53715;BME280;39608;55.630;37.864;2024-01-30T19:55:25;100778.44;;;0.68;81.09
53715;BME280;39608;55.630;37.864;2024-01-30T20:00:27;100782.16;;;0.67;80.90
53715;BME280;39608;55.630;37.864;2024-01-30T20:05:31;100773.06;;;0.55;81.03
53715;BME280;39608;55.630;37.864;2024-01-30T20:10:33;100771.72;;;0.38;80.89
53715;BME280;39608;55.630;37.864;2024-01-30T20:15:35;100770.44;;;0.27;80.71
53715;BME280;39608;55.630;37.864;2024-01-30T20:20:39;100777.72;;;0.11;80.83
53715;BME280;39608;55.630;37.864;2024-01-30T20:25:41;100772.28;;;-0.02;80.90
53715;BME280;39608;55.630;37.864;2024-01-30T20:30:43;100765.41;;;-0.11;81.33
53715;BME280;39608;55.630;37.864;2024-01-30T20:35:48;100776.88;;;-0.18;81.36
53715;BME280;39608;55.630;37.864;2024-01-30T20:40:50;100776.59;;;-0.23;81.79
53715;BME280;39608;55.630;37.864;2024-01-30T20:45:52;100773.31;;;-0.25;81.64
53715;BME280;39608;55.630;37.864;2024-01-30T20:50:56;100770.34;;;-0.37;81.52
53715;BME280;39608;55.630;37.864;2024-01-30T20:55:58;100768.66;;;-0.44;81.55
53715;BME280;39608;55.630;37.864;2024-01-30T21:01:00;100774.16;;;-0.46;82.23
53715;BME280;39608;55.630;37.864;2024-01-30T21:06:03;100763.06;;;-0.28;82.47
53715;BME280;39608;55.630;37.864;2024-01-30T21:11:06;100768.53;;;-0.08;81.89
53715;BME280;39608;55.630;37.864;2024-01-30T21:16:08;100774.16;;;0.04;82.08
53715;BME280;39608;55.630;37.864;2024-01-30T21:21:11;100764.59;;;0.16;82.10
53715;BME280;39608;55.630;37.864;2024-01-30T21:26:13;100774.50;;;0.23;81.96
53715;BME280;39608;55.630;37.864;2024-01-30T21:31:15;100757.72;;;0.29;81.84
53715;BME280;39608;55.630;37.864;2024-01-30T21:36:18;100763.59;;;0.53;82.18
53715;BME280;39608;55.630;37.864;2024-01-30T21:41:20;100760.19;;;0.72;81.69
53715;BME280;39608;55.630;37.864;2024-01-30T21:46:23;100763.53;;;0.88;81.26
53715;BME280;39608;55.630;37.864;2024-01-30T21:51:27;100754.75;;;0.94;81.24
53715;BME280;39608;55.630;37.864;2024-01-30T21:56:31;100752.50;;;1.04;81.11
53715;BME280;39608;55.630;37.864;2024-01-30T22:01:34;100751.09;;;1.08;80.78
53715;BME280;39608;55.630;37.864;2024-01-30T22:06:37;100752.34;;;1.19;80.59
53715;BME280;39608;55.630;37.864;2024-01-30T22:11:40;100748.66;;;1.27;80.44
53715;BME280;39608;55.630;37.864;2024-01-30T22:16:42;100737.13;;;1.33;80.86
53715;BME280;39608;55.630;37.864;2024-01-30T22:21:45;100731.41;;;1.36;80.45
53715;BME280;39608;55.630;37.864;2024-01-30T22:26:47;100733.03;;;1.37;80.42
53715;BME280;39608;55.630;37.864;2024-01-30T22:31:49;100728.31;;;1.39;80.14
53715;BME280;39608;55.630;37.864;2024-01-30T22:36:53;100728.72;;;1.43;80.14
53715;BME280;39608;55.630;37.864;2024-01-30T22:41:55;100725.66;;;1.46;80.03
53715;BME280;39608;55.630;37.864;2024-01-30T22:46:57;100727.69;;;1.37;80.16
53715;BME280;39608;55.630;37.864;2024-01-30T22:52:00;100722.34;;;1.37;80.35
53715;BME280;39608;55.630;37.864;2024-01-30T22:57:02;100728.53;;;1.31;80.34
53715;BME280;39608;55.630;37.864;2024-01-30T23:02:04;100736.31;;;1.26;80.65
53715;BME280;39608;55.630;37.864;2024-01-30T23:07:09;100724.81;;;1.32;80.57
53715;BME280;39608;55.630;37.864;2024-01-30T23:12:11;100732.00;;;1.31;80.58
53715;BME280;39608;55.630;37.864;2024-01-30T23:17:12;100732.22;;;1.30;80.39
53715;BME280;39608;55.630;37.864;2024-01-30T23:22:16;100726.66;;;1.25;80.90
53715;BME280;39608;55.630;37.864;2024-01-30T23:27:18;100719.84;;;1.15;80.96
53715;BME280;39608;55.630;37.864;2024-01-30T23:32:20;100724.38;;;1.22;80.68
53715;BME280;39608;55.630;37.864;2024-01-30T23:37:23;100715.75;;;1.19;80.75
53715;BME280;39608;55.630;37.864;2024-01-30T23:42:25;100722.50;;;1.02;81.26
53715;BME280;39608;55.630;37.864;2024-01-30T23:47:27;100716.09;;;0.90;81.59
53715;BME280;39608;55.630;37.864;2024-01-30T23:52:31;100717.97;;;0.96;81.18
53715;BME280;39608;55.630;37.864;2024-01-30T23:57:33;100701.13;;;1.09;81.35
